Time;durP1;ratioP1;P1;durP2;ratioP2;P2;SDS_P1;SDS_P2;PMS_P1;PMS_P2;Temp;Humidity;BMP_temperature;BMP_pressure;BME280_temperature;BME280_humidity;BME280_pressure;Samples;Min_cycle;Max_cycle;Signal;HPM_P1;HPM_P2
2021/10/06 00:01:12;;;;;;;1.23;0.40;;;10.90;99.90;;;;;;5082909;28;20055;-73
2021/10/06 00:03:39;;;;;;;3.40;1.10;;;10.90;99.90;;;;;;5106872;28;20039;-73
2021/10/06 00:06:05;;;;;;;4.22;1.50;;;10.80;99.90;;;;;;5109481;27;20692;-73
2021/10/06 00:08:32;;;;;;;3.25;1.42;;;10.80;99.90;;;;;;5106218;28;20039;-73
2021/10/06 00:10:58;;;;;;;5.95;2.28;;;10.90;99.90;;;;;;5068451;28;20047;-73
2021/10/06 00:13:25;;;;;;;5.45;1.80;;;10.80;99.90;;;;;;5086279;28;20055;-73
2021/10/06 00:15:51;;;;;;;6.55;2.20;;;10.80;99.90;;;;;;5087807;27;20042;-73
2021/10/06 00:18:17;;;;;;;5.72;2.30;;;10.90;99.90;;;;;;5072694;27;21358;-73
2021/10/06 00:20:44;;;;;;;6.97;2.60;;;10.80;99.90;;;;;;5114192;27;20054;-73
2021/10/06 00:23:10;;;;;;;9.48;4.13;;;10.80;99.90;;;;;;5074980;27;20062;-73
2021/10/06 00:25:37;;;;;;;8.57;3.13;;;10.80;99.90;;;;;;5056623;27;20116;-73
2021/10/06 00:28:04;;;;;;;5.22;2.75;;;10.80;99.90;;;;;;5074764;27;20020;-73
2021/10/06 00:30:30;;;;;;;4.97;2.38;;;10.80;99.90;;;;;;5088831;27;20062;-73
2021/10/06 00:32:56;;;;;;;7.57;2.55;;;10.70;99.90;;;;;;5089067;27;20047;-73
2021/10/06 00:35:23;;;;;;;5.75;2.45;;;10.70;99.90;;;;;;5112448;27;20047;-73
2021/10/06 00:37:49;;;;;;;9.85;2.17;;;10.70;99.90;;;;;;5067730;27;20058;-73
2021/10/06 00:40:16;;;;;;;5.60;2.40;;;10.70;99.90;;;;;;5112938;27;20054;-73
2021/10/06 00:42:42;;;;;;;4.40;1.95;;;10.60;99.90;;;;;;5113051;27;20027;-73
2021/10/06 00:45:09;;;;;;;8.43;2.00;;;10.60;99.90;;;;;;5086029;27;20046;-73
2021/10/06 00:47:36;;;;;;;4.07;1.33;;;10.70;99.90;;;;;;5111548;27;20395;-73
2021/10/06 00:50:03;;;;;;;7.00;1.85;;;10.70;99.90;;;;;;5115441;27;20042;-73
2021/10/06 00:52:30;;;;;;;4.03;1.20;;;10.70;99.90;;;;;;5086317;28;20089;-73
2021/10/06 00:54:56;;;;;;;5.85;1.33;;;10.80;99.90;;;;;;5110814;27;20046;-73
2021/10/06 00:57:23;;;;;;;4.57;1.30;;;10.80;99.90;;;;;;5087940;28;20047;-73
2021/10/06 00:59:49;;;;;;;4.47;1.40;;;10.80;99.90;;;;;;5085509;28;20042;-73
2021/10/06 01:02:15;;;;;;;4.22;1.10;;;10.90;99.90;;;;;;5087459;27;20052;-73
2021/10/06 01:04:42;;;;;;;10.32;1.83;;;10.90;99.90;;;;;;5109570;27;20032;-73
2021/10/06 01:07:09;;;;;;;6.47;1.25;;;10.90;99.90;;;;;;5112983;27;20039;-73
2021/10/06 01:09:36;;;;;;;8.00;0.90;;;11.00;99.90;;;;;;5085983;27;20602;-73
2021/10/06 01:12:03;;;;;;;6.57;1.23;;;11.00;99.90;;;;;;5087277;28;20035;-73
2021/10/06 01:14:30;;;;;;;5.28;1.33;;;11.00;99.90;;;;;;5057891;28;20396;-73
2021/10/06 01:16:57;;;;;;;6.20;0.90;;;11.00;99.90;;;;;;5115469;27;20028;-73
2021/10/06 01:19:28;;;;;;;2.45;0.60;;;11.10;99.90;;;;;;5072900;27;20035;-73
2021/10/06 01:21:56;;;;;;;5.47;0.93;;;11.10;99.90;;;;;;5086703;27;20093;-73
2021/10/06 01:24:25;;;;;;;4.05;0.70;;;11.10;99.90;;;;;;5085442;28;20031;-72
2021/10/06 01:26:51;;;;;;;7.80;1.02;;;11.00;99.90;;;;;;5106308;27;20044;-72
2021/10/06 01:29:17;;;;;;;6.45;0.90;;;11.00;99.90;;;;;;5088203;28;20043;-72
2021/10/06 01:31:46;;;;;;;3.28;0.70;;;11.00;99.90;;;;;;5106285;27;20035;-72
2021/10/06 01:34:13;;;;;;;5.70;1.00;;;11.00;99.90;;;;;;5109044;27;20582;-72
2021/10/06 01:36:40;;;;;;;7.47;0.88;;;11.10;99.90;;;;;;5111005;27;20046;-72
2021/10/06 01:39:08;;;;;;;5.05;0.85;;;11.10;99.90;;;;;;5086385;27;20035;-72
2021/10/06 01:41:36;;;;;;;8.02;0.93;;;11.10;99.90;;;;;;5087191;27;20032;-72
2021/10/06 01:44:03;;;;;;;9.63;1.08;;;11.20;99.90;;;;;;5054048;27;20055;-72
2021/10/06 01:46:30;;;;;;;5.30;0.60;;;11.20;99.90;;;;;;5085333;27;20043;-72
2021/10/06 01:48:57;;;;;;;7.20;0.82;;;11.20;99.90;;;;;;5088321;27;20050;-72
2021/10/06 01:51:24;;;;;;;7.80;0.75;;;11.20;99.90;;;;;;5109666;27;20058;-72
2021/10/06 01:53:51;;;;;;;9.63;0.90;;;11.20;99.90;;;;;;5112210;27;20050;-72
2021/10/06 01:56:17;;;;;;;5.40;1.20;;;11.20;99.90;;;;;;5111564;27;20048;-72
2021/10/06 01:58:49;;;;;;;4.53;0.75;;;11.20;99.90;;;;;;5065916;28;20400;-72
2021/10/06 02:01:16;;;;;;;6.93;1.08;;;11.20;99.90;;;;;;5084155;28;20768;-72
2021/10/06 02:03:42;;;;;;;8.50;1.33;;;11.20;99.90;;;;;;5084329;27;20055;-72
2021/10/06 02:06:09;;;;;;;9.00;0.80;;;11.20;99.90;;;;;;5110740;27;20039;-72
2021/10/06 02:08:35;;;;;;;6.28;0.60;;;11.20;99.90;;;;;;5111918;27;20046;-72
2021/10/06 02:11:02;;;;;;;6.57;0.95;;;11.20;99.90;;;;;;5087277;27;20043;-72
2021/10/06 02:13:29;;;;;;;5.22;0.60;;;11.20;99.90;;;;;;5114950;27;20505;-72
2021/10/06 02:15:56;;;;;;;5.30;1.23;;;11.30;99.90;;;;;;5086051;27;20051;-72
2021/10/06 02:18:22;;;;;;;6.85;1.20;;;11.20;99.90;;;;;;5087723;27;20036;-72
2021/10/06 02:20:48;;;;;;;6.38;0.80;;;11.20;99.90;;;;;;5084698;28;20046;-72
2021/10/06 02:23:15;;;;;;;6.25;0.90;;;11.20;99.90;;;;;;5083757;28;20034;-72
2021/10/06 02:25:42;;;;;;;6.50;0.75;;;11.20;99.90;;;;;;5105178;27;20050;-72
2021/10/06 02:28:09;;;;;;;6.40;1.10;;;11.20;99.90;;;;;;5084833;28;20035;-72
2021/10/06 02:30:35;;;;;;;10.23;1.17;;;11.20;99.90;;;;;;5111317;27;20047;-72
2021/10/06 02:33:02;;;;;;;4.70;0.75;;;11.20;99.90;;;;;;5084213;28;20028;-72
2021/10/06 02:35:29;;;;;;;7.05;0.95;;;11.20;99.90;;;;;;5108092;27;20035;-72
2021/10/06 02:37:55;;;;;;;8.25;1.17;;;11.10;99.90;;;;;;5083047;28;20054;-73
2021/10/06 02:40:22;;;;;;;9.10;1.58;;;11.10;99.90;;;;;;5083791;28;20039;-72
2021/10/06 02:42:50;;;;;;;8.15;2.42;;;11.20;99.90;;;;;;5110750;27;20027;-72
2021/10/06 02:45:18;;;;;;;10.45;2.40;;;11.10;99.90;;;;;;5108746;27;20676;-72
2021/10/06 02:47:46;;;;;;;7.07;1.90;;;11.10;99.90;;;;;;5083581;28;20048;-72
2021/10/06 02:50:16;;;;;;;9.77;1.17;;;11.10;99.90;;;;;;5116294;27;20046;-72
2021/10/06 02:52:43;;;;;;;6.97;1.20;;;11.10;99.90;;;;;;5109890;27;20056;-72
2021/10/06 02:55:09;;;;;;;7.32;1.70;;;11.10;99.90;;;;;;5069053;28;20523;-72
2021/10/06 02:57:36;;;;;;;8.02;1.02;;;11.10;99.90;;;;;;5084982;27;20047;-72
2021/10/06 03:00:07;;;;;;;7.03;1.00;;;11.00;99.90;;;;;;5075893;28;20036;-72
2021/10/06 03:02:39;;;;;;;4.47;0.85;;;11.10;99.90;;;;;;5108960;27;20028;-72
2021/10/06 03:05:07;;;;;;;6.13;1.30;;;11.10;99.90;;;;;;5110319;27;20907;-72
2021/10/06 03:07:33;;;;;;;7.78;1.40;;;11.00;99.90;;;;;;5108652;27;20395;-72
2021/10/06 03:10:00;;;;;;;5.72;0.98;;;11.00;99.90;;;;;;5102400;27;20035;-72
2021/10/06 03:12:26;;;;;;;4.00;1.00;;;11.00;99.90;;;;;;5108709;27;20055;-72
2021/10/06 03:14:53;;;;;;;7.43;1.10;;;11.00;99.90;;;;;;5067721;27;20039;-72
2021/10/06 03:17:19;;;;;;;8.38;1.77;;;11.00;99.90;;;;;;5069027;27;20051;-72
2021/10/06 03:19:45;;;;;;;6.78;1.20;;;11.00;99.90;;;;;;5072130;27;20036;-72
2021/10/06 03:22:12;;;;;;;6.75;1.20;;;11.10;99.90;;;;;;5108059;27;20043;-72
2021/10/06 03:24:38;;;;;;;6.05;1.70;;;11.10;99.90;;;;;;5106951;27;20032;-72
2021/10/06 03:27:05;;;;;;;4.63;1.63;;;11.10;99.90;;;;;;5109432;27;20035;-72
2021/10/06 03:29:31;;;;;;;6.10;1.52;;;11.10;99.90;;;;;;5068619;27;20035;-72
2021/10/06 03:32:00;;;;;;;5.05;1.52;;;11.10;99.90;;;;;;5085126;27;20062;-72
2021/10/06 03:34:26;;;;;;;6.57;1.90;;;11.00;99.90;;;;;;5110488;27;20062;-72
2021/10/06 03:36:52;;;;;;;10.68;1.95;;;11.00;99.90;;;;;;5066398;28;20044;-72
2021/10/06 03:39:19;;;;;;;5.00;1.45;;;11.00;99.90;;;;;;5108923;28;20039;-72
2021/10/06 03:41:45;;;;;;;6.70;1.70;;;11.00;99.90;;;;;;5085076;28;20042;-74
2021/10/06 03:44:12;;;;;;;6.25;1.63;;;11.00;99.90;;;;;;5085011;28;20042;-72
2021/10/06 03:46:38;;;;;;;12.07;2.78;;;11.00;99.90;;;;;;5110893;28;20039;-72
2021/10/06 03:49:04;;;;;;;8.73;1.85;;;11.00;99.90;;;;;;5110237;28;20047;-72
2021/10/06 03:51:31;;;;;;;5.10;1.50;;;11.00;99.90;;;;;;5085388;28;20035;-72
2021/10/06 03:53:57;;;;;;;7.68;1.83;;;11.00;99.90;;;;;;5068888;28;20051;-72
2021/10/06 03:56:24;;;;;;;7.93;1.80;;;10.90;99.90;;;;;;5083030;28;20681;-72
2021/10/06 03:58:50;;;;;;;8.55;1.90;;;10.90;99.90;;;;;;5066961;28;20037;-72
2021/10/06 04:01:17;;;;;;;10.57;1.42;;;10.90;99.90;;;;;;5069052;28;20055;-72
2021/10/06 04:03:43;;;;;;;10.13;1.85;;;10.90;99.90;;;;;;5084457;28;20528;-72
2021/10/06 04:06:09;;;;;;;6.80;1.23;;;10.90;99.90;;;;;;5070254;28;20403;-72
2021/10/06 04:08:36;;;;;;;3.70;1.23;;;10.90;99.90;;;;;;5086995;27;20040;-72
2021/10/06 04:11:02;;;;;;;6.38;1.35;;;10.90;99.90;;;;;;5106908;28;20035;-72
2021/10/06 04:13:29;;;;;;;9.00;2.38;;;10.90;99.90;;;;;;5074915;28;20051;-72
2021/10/06 04:15:55;;;;;;;8.95;1.25;;;10.90;99.90;;;;;;5084879;28;20062;-72
2021/10/06 04:18:21;;;;;;;3.85;1.38;;;10.90;99.90;;;;;;5086195;28;20036;-72
2021/10/06 04:20:48;;;;;;;6.15;1.80;;;10.80;99.90;;;;;;5106951;28;20023;-72
2021/10/06 04:23:14;;;;;;;5.75;1.38;;;10.80;99.90;;;;;;5086890;28;20042;-72
2021/10/06 04:25:41;;;;;;;4.35;1.10;;;10.80;99.90;;;;;;5086740;28;20479;-72
2021/10/06 04:28:07;;;;;;;3.28;0.70;;;10.80;99.90;;;;;;5083565;28;20043;-72
2021/10/06 04:30:34;;;;;;;2.55;0.60;;;10.80;99.90;;;;;;5084379;28;20054;-74
2021/10/06 04:33:01;;;;;;;2.50;0.43;;;10.80;99.90;;;;;;5065264;28;20614;-72
2021/10/06 04:35:27;;;;;;;3.05;0.50;;;10.70;99.90;;;;;;5041811;28;20625;-72
2021/10/06 04:37:54;;;;;;;2.30;0.50;;;10.70;99.90;;;;;;5108670;28;20051;-72
2021/10/06 04:40:20;;;;;;;4.38;0.60;;;10.60;99.90;;;;;;5066260;28;20513;-72
2021/10/06 04:42:47;;;;;;;3.03;0.73;;;10.60;99.90;;;;;;5052298;28;20043;-72
2021/10/06 04:45:14;;;;;;;3.63;1.52;;;10.60;99.90;;;;;;5080234;28;20023;-72
2021/10/06 04:47:40;;;;;;;2.38;0.88;;;10.60;99.90;;;;;;5109990;28;20633;-72
2021/10/06 04:50:07;;;;;;;4.55;1.05;;;10.60;99.90;;;;;;5065967;28;20048;-72
2021/10/06 04:52:34;;;;;;;6.43;1.77;;;10.60;99.90;;;;;;5076807;28;20048;-72
2021/10/06 04:55:00;;;;;;;7.30;1.73;;;10.60;99.90;;;;;;5084507;28;20388;-74
2021/10/06 04:57:26;;;;;;;4.28;1.83;;;10.60;99.90;;;;;;5076307;28;20067;-72
2021/10/06 04:59:53;;;;;;;9.07;2.95;;;10.50;99.90;;;;;;5078272;28;20039;-73
2021/10/06 05:02:20;;;;;;;9.85;2.30;;;10.60;99.90;;;;;;5082229;28;20049;-73
2021/10/06 05:04:46;;;;;;;5.70;2.08;;;10.60;99.90;;;;;;5084215;28;20039;-75
2021/10/06 05:07:12;;;;;;;6.20;2.63;;;10.60;99.90;;;;;;5066354;28;20031;-73
2021/10/06 05:09:39;;;;;;;7.45;2.25;;;10.60;99.90;;;;;;5083070;28;20040;-74
2021/10/06 05:12:05;;;;;;;6.65;1.85;;;10.60;99.90;;;;;;5093458;28;20041;-73
2021/10/06 05:14:32;;;;;;;7.35;2.15;;;10.70;99.90;;;;;;5084387;28;20051;-73
2021/10/06 05:16:58;;;;;;;6.72;2.13;;;10.60;99.90;;;;;;5066168;28;20058;-74
2021/10/06 05:19:25;;;;;;;4.05;2.33;;;10.60;99.90;;;;;;5084758;28;20032;-73
2021/10/06 05:21:51;;;;;;;6.50;2.38;;;10.60;99.90;;;;;;5081160;28;20504;-73
2021/10/06 05:24:18;;;;;;;7.70;2.35;;;10.60;99.90;;;;;;5084944;28;20032;-75
2021/10/06 05:26:44;;;;;;;10.25;2.80;;;10.60;99.90;;;;;;5082777;28;20043;-73
2021/10/06 05:29:10;;;;;;;6.22;2.38;;;10.60;99.90;;;;;;5085740;28;20086;-73
2021/10/06 05:31:37;;;;;;;9.73;2.92;;;10.60;99.90;;;;;;5083439;28;20040;-73
2021/10/06 05:34:03;;;;;;;7.82;2.75;;;10.60;99.90;;;;;;5086382;28;20358;-75
2021/10/06 05:36:29;;;;;;;5.15;1.92;;;10.60;99.90;;;;;;5082573;28;20044;-75
2021/10/06 05:38:56;;;;;;;7.32;1.98;;;10.70;99.90;;;;;;5081022;28;20036;-75
2021/10/06 05:41:22;;;;;;;7.65;2.00;;;10.70;99.90;;;;;;5081487;28;20374;-75
2021/10/06 05:43:48;;;;;;;5.40;1.58;;;10.70;99.90;;;;;;5085868;28;20047;-75
2021/10/06 05:46:15;;;;;;;11.60;2.35;;;10.70;99.90;;;;;;5084779;28;20080;-73
2021/10/06 05:48:41;;;;;;;6.70;2.22;;;10.70;99.90;;;;;;5083377;28;20050;-73
2021/10/06 05:51:08;;;;;;;8.00;2.15;;;10.70;99.90;;;;;;5084788;28;20055;-73
2021/10/06 05:53:34;;;;;;;9.48;2.25;;;10.70;99.90;;;;;;5083020;28;20048;-73
2021/10/06 05:56:00;;;;;;;10.23;2.33;;;10.70;99.90;;;;;;5086882;28;20405;-73
2021/10/06 05:58:27;;;;;;;9.02;2.55;;;10.70;99.90;;;;;;5082786;28;20060;-73
2021/10/06 06:00:54;;;;;;;7.75;2.72;;;10.70;99.90;;;;;;5088089;28;20036;-73
2021/10/06 06:03:20;;;;;;;6.82;2.38;;;10.70;99.90;;;;;;5088833;28;20125;-73
2021/10/06 06:05:47;;;;;;;7.50;2.88;;;10.60;99.90;;;;;;5081435;28;20603;-73
2021/10/06 06:08:13;;;;;;;8.25;2.83;;;10.70;99.90;;;;;;5084138;28;20039;-73
2021/10/06 06:10:39;;;;;;;10.88;3.45;;;10.60;99.90;;;;;;5085493;28;20048;-73
2021/10/06 06:13:06;;;;;;;7.60;2.45;;;10.70;99.90;;;;;;5087765;28;20036;-73
2021/10/06 06:15:32;;;;;;;7.10;2.42;;;10.60;99.90;;;;;;5088076;28;20044;-73
2021/10/06 06:17:58;;;;;;;7.38;2.63;;;10.60;99.90;;;;;;5089269;28;20859;-73
2021/10/06 06:20:26;;;;;;;9.02;2.45;;;10.60;99.90;;;;;;5071222;28;20056;-72
2021/10/06 06:22:54;;;;;;;6.70;2.47;;;10.60;99.90;;;;;;5091772;28;20031;-72
2021/10/06 06:25:21;;;;;;;9.50;2.78;;;10.60;99.90;;;;;;5083283;28;20044;-72
2021/10/06 06:27:47;;;;;;;8.75;2.17;;;10.60;99.90;;;;;;5064167;28;20053;-72
2021/10/06 06:30:14;;;;;;;6.00;3.13;;;10.60;99.90;;;;;;5092094;28;20043;-73
2021/10/06 06:32:44;;;;;;;7.07;2.05;;;10.60;99.90;;;;;;5082517;28;20055;-74
2021/10/06 06:35:10;;;;;;;7.63;2.67;;;10.60;99.90;;;;;;5064125;28;20036;-73
2021/10/06 06:37:38;;;;;;;14.95;3.83;;;10.60;99.90;;;;;;5082277;28;20851;-73
2021/10/06 06:40:06;;;;;;;9.75;3.60;;;10.60;99.90;;;;;;5081620;28;20050;-72
2021/10/06 06:42:33;;;;;;;6.75;2.80;;;10.60;99.90;;;;;;5082024;28;20036;-73
2021/10/06 06:44:59;;;;;;;6.72;3.05;;;10.70;99.90;;;;;;5063412;28;20552;-74
2021/10/06 06:47:26;;;;;;;9.77;3.33;;;10.60;99.90;;;;;;5091395;28;20852;-73
2021/10/06 06:49:53;;;;;;;8.27;2.53;;;10.70;99.90;;;;;;5081502;28;20051;-73
2021/10/06 06:52:20;;;;;;;7.63;2.63;;;10.60;99.90;;;;;;5095697;27;20039;-72
2021/10/06 06:54:46;;;;;;;9.00;2.97;;;10.70;99.90;;;;;;5084735;27;20491;-72
2021/10/06 06:57:12;;;;;;;9.93;2.90;;;10.70;99.90;;;;;;5072261;27;20063;-72
2021/10/06 06:59:39;;;;;;;8.07;2.60;;;10.60;99.90;;;;;;5067960;28;20054;-72
2021/10/06 07:02:05;;;;;;;9.60;3.20;;;10.60;99.90;;;;;;5082769;27;20507;-72
2021/10/06 07:04:31;;;;;;;9.35;3.47;;;10.70;99.90;;;;;;5108044;27;20387;-72
2021/10/06 07:06:58;;;;;;;7.43;3.33;;;10.70;99.90;;;;;;5070334;27;20044;-73
2021/10/06 07:09:25;;;;;;;7.47;2.83;;;10.70;99.90;;;;;;5083283;28;20042;-74
2021/10/06 07:11:55;;;;;;;8.27;3.42;;;10.70;99.90;;;;;;5113159;27;20506;-73
2021/10/06 07:14:21;;;;;;;3.80;2.30;;;10.70;99.90;;;;;;5085493;27;20042;-72
2021/10/06 07:16:48;;;;;;;5.40;2.75;;;10.70;99.90;;;;;;5086821;27;20031;-72
2021/10/06 07:19:15;;;;;;;7.82;2.67;;;10.70;99.90;;;;;;5055047;28;20055;-73
2021/10/06 07:21:44;;;;;;;8.55;2.70;;;10.80;99.90;;;;;;5068312;28;20456;-72
2021/10/06 07:24:14;;;;;;;9.45;3.42;;;10.80;99.90;;;;;;5084250;28;20047;-73
2021/10/06 07:26:44;;;;;;;6.68;2.50;;;10.80;99.90;;;;;;5110207;27;20046;-72
2021/10/06 07:29:11;;;;;;;4.95;2.70;;;10.80;99.90;;;;;;5082396;28;20541;-73
2021/10/06 07:31:37;;;;;;;6.45;2.20;;;10.80;99.90;;;;;;5069854;27;20027;-73
2021/10/06 07:34:04;;;;;;;4.85;2.10;;;10.90;99.90;;;;;;5105175;27;20039;-72
2021/10/06 07:36:30;;;;;;;5.25;2.83;;;10.90;99.90;;;;;;5082550;27;20058;-73
2021/10/06 07:38:57;;;;;;;5.70;2.25;;;10.90;99.90;;;;;;5104023;27;20036;-73
2021/10/06 07:41:24;;;;;;;7.47;2.20;;;11.00;99.90;;;;;;5083747;28;20777;-73
2021/10/06 07:43:51;;;;;;;5.05;2.40;;;11.00;99.90;;;;;;5084852;28;20027;-73
2021/10/06 07:46:18;;;;;;;8.98;2.60;;;11.00;99.90;;;;;;5081567;28;20369;-74
2021/10/06 07:48:44;;;;;;;5.15;3.13;;;11.00;99.90;;;;;;5085801;28;20070;-74
2021/10/06 07:51:10;;;;;;;6.63;2.20;;;11.00;99.90;;;;;;5105875;28;20043;-74
2021/10/06 07:53:37;;;;;;;4.75;2.17;;;11.00;99.90;;;;;;5110020;27;20047;-74
2021/10/06 07:56:04;;;;;;;7.05;1.98;;;11.00;99.90;;;;;;5083558;28;20053;-73
2021/10/06 07:58:33;;;;;;;4.72;2.45;;;11.00;99.90;;;;;;5082484;28;20046;-73
2021/10/06 08:01:00;;;;;;;3.05;2.13;;;11.00;99.90;;;;;;5069785;28;20044;-73
2021/10/06 08:03:27;;;;;;;4.18;1.85;;;11.00;99.90;;;;;;5108698;28;20023;-73
2021/10/06 08:05:53;;;;;;;6.40;2.33;;;11.00;99.90;;;;;;5106308;27;20028;-74
2021/10/06 08:08:19;;;;;;;5.95;1.50;;;11.00;99.90;;;;;;5065802;28;20050;-73
2021/10/06 08:10:46;;;;;;;10.57;2.70;;;11.00;99.90;;;;;;5085158;28;20042;-73
2021/10/06 08:13:12;;;;;;;9.18;3.05;;;11.00;99.90;;;;;;5059400;28;20415;-73
2021/10/06 08:15:38;;;;;;;5.82;2.63;;;11.00;99.90;;;;;;5108202;27;20047;-73
2021/10/06 08:18:05;;;;;;;6.28;2.60;;;11.00;99.90;;;;;;5066834;28;20388;-73
2021/10/06 08:20:34;;;;;;;5.43;3.08;;;11.00;99.90;;;;;;5083728;28;20058;-73
2021/10/06 08:23:03;;;;;;;6.13;2.45;;;11.00;99.90;;;;;;5109195;28;20042;-73
2021/10/06 08:25:30;;;;;;;5.93;3.35;;;11.00;99.90;;;;;;5083637;28;20036;-73
2021/10/06 08:27:56;;;;;;;4.90;1.95;;;11.00;99.90;;;;;;5108713;27;20051;-73
2021/10/06 08:30:23;;;;;;;5.43;2.47;;;11.10;99.90;;;;;;5085628;28;20044;-72
2021/10/06 08:32:50;;;;;;;4.38;2.65;;;11.10;99.90;;;;;;5067017;28;20040;-73
2021/10/06 08:35:16;;;;;;;4.63;2.55;;;11.10;99.90;;;;;;5105074;27;20046;-72
2021/10/06 08:37:43;;;;;;;7.28;2.47;;;11.20;99.90;;;;;;5108511;27;20480;-73
2021/10/06 08:40:10;;;;;;;5.22;2.50;;;11.20;99.90;;;;;;5082534;27;20024;-72
2021/10/06 08:42:39;;;;;;;5.45;2.70;;;11.20;99.90;;;;;;5107870;27;20027;-72
2021/10/06 08:45:07;;;;;;;6.75;3.67;;;11.20;99.90;;;;;;5082182;27;20039;-73
2021/10/06 08:47:40;;;;;;;5.50;2.63;;;11.20;99.90;;;;;;5087026;27;20031;-73
2021/10/06 08:50:11;;;;;;;6.70;2.25;;;11.30;99.90;;;;;;5110715;27;20831;-73
2021/10/06 08:52:38;;;;;;;5.40;3.38;;;11.40;99.90;;;;;;5088158;27;20075;-73
2021/10/06 08:55:06;;;;;;;4.75;2.78;;;11.40;99.90;;;;;;5111697;27;20030;-73
2021/10/06 08:57:33;;;;;;;3.13;2.10;;;11.50;99.90;;;;;;5044960;27;20048;-73
2021/10/06 08:59:59;;;;;;;5.68;2.72;;;11.50;99.90;;;;;;5113410;27;20040;-73
2021/10/06 09:02:26;;;;;;;7.60;2.63;;;11.60;99.90;;;;;;5111613;27;20038;-73
2021/10/06 09:04:55;;;;;;;5.65;2.75;;;11.60;99.90;;;;;;5071676;27;20047;-73
2021/10/06 09:07:21;;;;;;;7.03;2.50;;;11.60;99.90;;;;;;5068532;28;20044;-73
2021/10/06 09:09:48;;;;;;;3.75;2.10;;;11.60;99.90;;;;;;5082899;27;20043;-73
2021/10/06 09:12:17;;;;;;;4.43;1.92;;;11.60;99.90;;;;;;5110784;27;20032;-73
2021/10/06 09:14:48;;;;;;;3.42;1.90;;;11.60;99.90;;;;;;5071343;27;20377;-73
2021/10/06 09:17:18;;;;;;;8.70;2.67;;;11.60;99.90;;;;;;5109293;27;20036;-73
2021/10/06 09:19:57;;;;;;;3.40;1.38;;;11.60;99.90;;;;;;5109088;27;20050;-72
2021/10/06 09:22:30;;;;;;;2.63;1.70;;;11.60;99.90;;;;;;5110547;27;20031;-72
2021/10/06 09:24:57;;;;;;;2.10;1.45;;;11.60;99.90;;;;;;5086445;27;20111;-72
2021/10/06 09:27:35;;;;;;;3.80;2.38;;;11.70;99.90;;;;;;5111580;27;20031;-73
2021/10/06 09:30:09;;;;;;;3.40;2.00;;;11.70;99.90;;;;;;5113686;27;20038;-72
2021/10/06 09:32:44;;;;;;;4.22;2.40;;;11.80;99.90;;;;;;5112720;27;20051;-72
2021/10/06 09:35:16;;;;;;;4.30;1.98;;;11.90;99.90;;;;;;5109603;27;20027;-73
2021/10/06 09:37:48;;;;;;;2.35;1.52;;;12.10;99.90;;;;;;5108048;27;20546;-72
2021/10/06 09:40:17;;;;;;;5.38;1.92;;;12.20;99.90;;;;;;5086384;27;20479;-72
2021/10/06 09:42:50;;;;;;;4.35;1.90;;;12.40;99.90;;;;;;5114158;27;20480;-72
2021/10/06 09:45:30;;;;;;;3.33;1.40;;;12.50;99.90;;;;;;5087211;27;20031;-74
2021/10/06 09:48:04;;;;;;;4.97;2.08;;;12.50;99.90;;;;;;5084920;27;20051;-74
2021/10/06 09:50:34;;;;;;;4.80;2.15;;;12.50;99.90;;;;;;5054547;27;20048;-74
2021/10/06 09:53:12;;;;;;;6.10;2.10;;;12.50;99.90;;;;;;5069143;27;20055;-74
2021/10/06 09:55:41;;;;;;;4.03;1.80;;;12.60;99.90;;;;;;5084829;27;20054;-74
2021/10/06 09:58:09;;;;;;;3.65;2.22;;;12.80;99.90;;;;;;5107215;27;20039;-74
2021/10/06 10:00:37;;;;;;;4.00;1.75;;;12.90;99.90;;;;;;5087756;27;20043;-74
2021/10/06 10:03:04;;;;;;;4.90;1.05;;;13.00;99.90;;;;;;5117964;27;20030;-74
2021/10/06 10:05:33;;;;;;;3.58;0.90;;;13.00;99.90;;;;;;5069094;27;20510;-74
2021/10/06 10:08:03;;;;;;;4.22;1.17;;;12.90;99.90;;;;;;5084672;27;20032;-74
2021/10/06 10:10:35;;;;;;;3.38;0.80;;;12.90;99.90;;;;;;5110987;27;20407;-74
2021/10/06 10:13:02;;;;;;;2.88;0.85;;;12.90;99.90;;;;;;5114706;27;20028;-74
2021/10/06 10:15:30;;;;;;;2.65;0.90;;;12.90;99.90;;;;;;5086172;27;20043;-74
2021/10/06 10:18:00;;;;;;;3.83;1.02;;;12.90;99.90;;;;;;5084003;27;20043;-74
2021/10/06 10:20:30;;;;;;;3.83;1.08;;;12.90;99.90;;;;;;5111627;27;20024;-73
2021/10/06 10:23:00;;;;;;;5.82;1.00;;;12.80;99.90;;;;;;5086178;27;20031;-73
2021/10/06 10:25:30;;;;;;;6.45;1.35;;;12.70;99.90;;;;;;5104044;27;20043;-73
2021/10/06 10:28:18;;;;;;;6.75;0.90;;;12.70;99.90;;;;;;5067831;27;20040;-74
2021/10/06 10:30:59;;;;;;;3.53;1.50;;;12.70;99.90;;;;;;5110651;27;20039;-74
2021/10/06 10:33:56;;;;;;;3.22;0.80;;;12.80;99.90;;;;;;5108452;27;20031;-74
2021/10/06 10:36:39;;;;;;;4.45;1.17;;;12.80;99.90;;;;;;5072421;27;20494;-74
2021/10/06 10:39:27;;;;;;;3.90;1.30;;;12.80;99.90;;;;;;5104091;27;20047;-74
2021/10/06 10:41:56;;;;;;;5.55;1.75;;;12.90;99.90;;;;;;5064289;28;20059;-75
2021/10/06 10:44:31;;;;;;;7.00;1.85;;;13.00;99.90;;;;;;5079980;27;20023;-75
2021/10/06 10:47:05;;;;;;;6.57;1.60;;;13.00;99.90;;;;;;5108556;27;20384;-74
2021/10/06 10:49:52;;;;;;;6.93;2.58;;;13.20;99.90;;;;;;5083311;28;20059;-75
2021/10/06 10:52:39;;;;;;;5.95;1.65;;;13.30;99.90;;;;;;5108244;27;20051;-74
2021/10/06 10:55:07;;;;;;;4.03;1.08;;;13.40;99.90;;;;;;5084041;27;20055;-75
2021/10/06 10:57:33;;;;;;;4.93;1.60;;;13.50;99.90;;;;;;5110805;27;20057;-75
2021/10/06 11:00:00;;;;;;;5.40;1.10;;;13.60;99.90;;;;;;5102142;27;20499;-75
2021/10/06 11:02:37;;;;;;;11.23;1.55;;;13.60;99.90;;;;;;5112195;27;20031;-75
2021/10/06 11:05:07;;;;;;;9.48;1.83;;;13.90;99.90;;;;;;5082761;27;20027;-75
2021/10/06 11:07:34;;;;;;;4.88;1.60;;;14.30;99.90;;;;;;5105634;27;20046;-74
2021/10/06 11:10:02;;;;;;;5.72;1.15;;;14.60;99.90;;;;;;5068339;27;20051;-74
2021/10/06 11:12:31;;;;;;;6.38;1.10;;;14.90;99.90;;;;;;5110111;27;20035;-74
2021/10/06 11:15:13;;;;;;;4.00;0.65;;;15.20;99.90;;;;;;5085373;27;20044;-75
2021/10/06 11:18:13;;;;;;;6.10;1.15;;;15.30;99.90;;;;;;5109959;27;20046;-74
2021/10/06 11:20:52;;;;;;;6.05;0.82;;;15.10;99.90;;;;;;5076564;27;20047;-74
2021/10/06 11:23:32;;;;;;;5.97;0.55;;;15.00;99.90;;;;;;5085614;27;20050;-74
2021/10/06 11:26:06;;;;;;;2.67;0.50;;;15.00;99.90;;;;;;5107109;27;20044;-74
2021/10/06 11:28:38;;;;;;;2.22;0.47;;;15.00;99.90;;;;;;5083919;27;20095;-74
2021/10/06 11:31:05;;;;;;;2.72;0.52;;;15.10;99.90;;;;;;5088775;27;20023;-74
2021/10/06 11:33:33;;;;;;;4.18;0.50;;;15.10;99.90;;;;;;5108510;27;20046;-74
2021/10/06 11:36:06;;;;;;;5.00;0.70;;;15.20;99.90;;;;;;5086885;27;20432;-74
2021/10/06 11:38:33;;;;;;;2.53;0.50;;;15.40;99.90;;;;;;5107685;27;20054;-74
2021/10/06 11:40:59;;;;;;;5.05;0.70;;;15.50;99.90;;;;;;5107905;27;20051;-74
2021/10/06 11:43:26;;;;;;;3.90;0.60;;;15.60;99.90;;;;;;5086799;27;20035;-74
2021/10/06 11:45:52;;;;;;;2.60;0.50;;;15.70;99.90;;;;;;5068804;28;20039;-74
2021/10/06 11:48:22;;;;;;;5.75;0.50;;;15.80;99.90;;;;;;5070345;28;20957;-74
2021/10/06 11:50:48;;;;;;;2.72;0.40;;;16.00;99.90;;;;;;5105824;28;20046;-74
2021/10/06 11:53:15;;;;;;;5.47;0.50;;;16.10;99.90;;;;;;5083350;28;20058;-74
2021/10/06 11:55:49;;;;;;;4.20;0.70;;;16.20;99.90;;;;;;5085096;28;20035;-74
2021/10/06 11:58:32;;;;;;;4.00;0.40;;;16.30;99.90;;;;;;5065997;28;20102;-74
2021/10/06 12:01:06;;;;;;;5.80;0.50;;;16.20;99.90;;;;;;5067856;28;20503;-74
2021/10/06 12:03:41;;;;;;;4.18;0.50;;;16.00;99.90;;;;;;5085357;28;20023;-74
2021/10/06 12:06:11;;;;;;;5.72;0.52;;;15.90;99.90;;;;;;5083292;28;20027;-76
2021/10/06 12:08:38;;;;;;;3.97;0.73;;;15.80;99.90;;;;;;5081844;28;20053;-75
2021/10/06 12:11:06;;;;;;;6.03;0.60;;;15.80;99.90;;;;;;5083432;28;20031;-76
2021/10/06 12:13:34;;;;;;;5.28;1.02;;;15.80;99.90;;;;;;5085865;28;20032;-75
2021/10/06 12:16:00;;;;;;;4.63;0.50;;;15.90;99.90;;;;;;5053762;27;20040;-75
2021/10/06 12:18:27;;;;;;;4.93;0.80;;;16.10;99.90;;;;;;5084344;28;20040;-74
2021/10/06 12:20:53;;;;;;;5.00;0.70;;;16.30;99.90;;;;;;5103034;27;20039;-75
2021/10/06 12:23:26;;;;;;;4.03;0.65;;;16.90;99.90;;;;;;5113459;27;20034;-74
2021/10/06 12:25:56;;;;;;;4.90;0.70;;;17.40;99.90;;;;;;5086196;27;20400;-75
2021/10/06 12:28:22;;;;;;;6.15;1.23;;;17.80;99.90;;;;;;5085487;28;20507;-75
2021/10/06 12:30:53;;;;;;;3.85;0.65;;;17.90;99.90;;;;;;5087910;27;20039;-75
2021/10/06 12:33:26;;;;;;;4.78;0.68;;;17.70;99.90;;;;;;5085236;27;20046;-75
2021/10/06 12:35:56;;;;;;;2.47;0.70;;;17.50;99.90;;;;;;5086742;27;20050;-75
2021/10/06 12:38:39;;;;;;;5.63;0.70;;;17.40;99.90;;;;;;5084924;27;20063;-75
2021/10/06 12:41:17;;;;;;;4.72;0.70;;;17.60;99.90;;;;;;5083305;28;20032;-75
2021/10/06 12:43:46;;;;;;;4.55;0.93;;;18.00;99.90;;;;;;5087999;27;20035;-75
2021/10/06 12:46:17;;;;;;;4.07;0.50;;;18.90;99.90;;;;;;5114301;27;20028;-75
2021/10/06 12:48:52;;;;;;;4.38;0.57;;;19.80;99.90;;;;;;5103872;27;20051;-75
2021/10/06 12:51:25;;;;;;;4.13;0.60;;;20.60;99.90;;;;;;5087555;27;20478;-76